createdAt,value
2022-11-29T00:00:18.101Z,70.18
2022-11-29T00:01:21.792Z,88.70
2022-11-29T00:02:23.442Z,75.30
2022-11-29T00:03:25.421Z,90.15
2022-11-29T00:04:27.646Z,77.72
2022-11-29T00:05:29.373Z,82.60
2022-11-29T00:06:32.055Z,88.13
2022-11-29T00:07:34.580Z,81.72
2022-11-29T00:08:36.313Z,94.38
2022-11-29T00:09:37.956Z,81.25
2022-11-29T00:10:39.514Z,88.43
2022-11-29T00:11:59.920Z,78.88
2022-11-29T00:13:01.487Z,78.57
2022-11-29T00:14:03.157Z,67.82
2022-11-29T00:15:05.071Z,88.47
2022-11-29T00:16:11.940Z,83.15
2022-11-29T00:17:13.607Z,81.40
2022-11-29T00:18:15.209Z,86.32
2022-11-29T00:19:16.823Z,85.65
2022-11-29T00:20:18.476Z,75.65
2022-11-29T00:21:20.030Z,82.55
2022-11-29T00:22:23.747Z,79.47
2022-11-29T00:23:25.342Z,81.40
2022-11-29T00:24:26.927Z,79.87
2022-11-29T00:25:28.484Z,77.88
2022-11-29T00:26:30.032Z,87.32
2022-11-29T00:27:31.785Z,76.68
2022-11-29T00:28:33.662Z,84.40
2022-11-29T00:29:35.896Z,90.13
2022-11-29T00:30:37.464Z,87.82
2022-11-29T00:31:39.275Z,88.07
2022-11-29T00:32:40.825Z,78.63
2022-11-29T00:33:42.384Z,95.53
2022-11-29T00:34:44.239Z,98.28
2022-11-29T00:35:45.910Z,81.15
2022-11-29T00:36:47.835Z,92.30
2022-11-29T00:37:49.398Z,91.60
2022-11-29T00:38:51.003Z,100.43
2022-11-29T00:39:52.544Z,86.53
2022-11-29T00:40:54.078Z,82.00
2022-11-29T00:41:55.818Z,92.03
2022-11-29T00:42:57.436Z,87.05
2022-11-29T00:43:59.285Z,76.03
2022-11-29T00:45:00.831Z,90.13
2022-11-29T00:46:02.532Z,81.88
2022-11-29T00:47:04.142Z,83.97
2022-11-29T00:48:05.880Z,87.05
2022-11-29T00:49:07.485Z,76.25
2022-11-29T00:50:09.308Z,82.05
2022-11-29T00:51:10.888Z,83.37
2022-11-29T00:52:12.423Z,81.05
2022-11-29T00:53:14.028Z,79.00
2022-11-29T00:54:15.805Z,104.80
2022-11-29T00:55:17.423Z,85.20
2022-11-29T00:56:18.985Z,110.00
2022-11-29T00:57:20.526Z,102.55
2022-11-29T00:58:22.419Z,86.30
2022-11-29T00:59:23.974Z,88.03
2022-11-29T01:00:25.526Z,112.07
2022-11-29T01:01:27.115Z,117.22
2022-11-29T01:02:28.801Z,114.55
2022-11-29T01:03:30.507Z,120.18
2022-11-29T01:04:32.049Z,94.70
2022-11-29T01:05:33.644Z,83.07
2022-11-29T01:06:35.186Z,89.32
2022-11-29T01:07:36.778Z,90.55
2022-11-29T01:08:38.467Z,78.95
2022-11-29T01:09:40.049Z,77.65
2022-11-29T01:10:41.909Z,99.30
2022-11-29T01:11:43.479Z,88.72
2022-11-29T01:12:45.109Z,73.32
2022-11-29T01:13:46.673Z,73.47
2022-11-29T01:14:48.343Z,107.00
2022-11-29T01:15:56.211Z,74.60
2022-11-29T01:16:57.839Z,77.78
2022-11-29T01:17:59.494Z,67.90
2022-11-29T01:19:01.057Z,69.97
2022-11-29T01:20:03.435Z,77.13
2022-11-29T01:21:07.294Z,93.40
2022-11-29T01:22:08.884Z,64.55
2022-11-29T01:23:10.485Z,72.30
2022-11-29T01:24:12.085Z,75.53
2022-11-29T01:25:13.809Z,65.60
2022-11-29T01:26:21.313Z,77.70
2022-11-29T01:27:22.877Z,73.32
2022-11-29T01:28:24.694Z,74.40
2022-11-29T01:29:26.242Z,108.72
2022-11-29T01:30:27.844Z,81.35
2022-11-29T01:31:31.473Z,85.18
2022-11-29T01:32:33.005Z,103.57
2022-11-29T01:33:35.036Z,86.57
2022-11-29T01:34:37.245Z,84.97
2022-11-29T01:35:39.108Z,84.07
2022-11-29T01:36:40.655Z,113.70
2022-11-29T01:37:42.293Z,98.35
2022-11-29T01:38:43.891Z,84.50
2022-11-29T01:39:45.435Z,85.88
2022-11-29T01:41:03.286Z,86.63
2022-11-29T01:42:04.993Z,92.95
2022-11-29T01:43:16.147Z,87.47
2022-11-29T01:44:17.868Z,80.43
2022-11-29T01:45:22.449Z,83.35
2022-11-29T01:46:24.727Z,70.47
2022-11-29T01:47:26.312Z,67.95
2022-11-29T01:48:29.977Z,72.97
2022-11-29T01:49:37.584Z,77.87
2022-11-29T01:50:39.531Z,72.68
2022-11-29T01:51:43.089Z,67.05
2022-11-29T01:52:44.629Z,65.65
2022-11-29T01:53:46.276Z,67.22
2022-11-29T01:54:49.569Z,68.65
2022-11-29T01:55:53.360Z,74.22
2022-11-29T01:56:55.133Z,72.43
2022-11-29T01:57:56.671Z,68.30
2022-11-29T01:58:58.254Z,82.82
2022-11-29T02:00:03.516Z,69.85
2022-11-29T02:01:05.146Z,86.28
2022-11-29T02:02:10.224Z,105.95
2022-11-29T02:03:13.218Z,109.55
2022-11-29T02:04:14.820Z,101.35
2022-11-29T02:05:16.872Z,80.35
2022-11-29T02:06:18.441Z,123.40
2022-11-29T02:07:20.012Z,95.80
2022-11-29T02:08:31.973Z,81.60
2022-11-29T02:09:33.621Z,79.93
2022-11-29T02:11:12.149Z,88.05
2022-11-29T02:12:22.599Z,74.68
2022-11-29T02:13:39.218Z,77.22
2022-11-29T02:15:17.202Z,73.88
2022-11-29T02:16:34.667Z,71.40
2022-11-29T02:17:43.496Z,68.80
2022-11-29T02:19:01.949Z,84.60
2022-11-29T02:20:22.864Z,78.57
2022-11-29T02:21:54.869Z,73.93
2022-11-29T02:23:23.658Z,76.70
2022-11-29T02:24:49.251Z,70.63
2022-11-29T02:26:14.893Z,80.07
2022-11-29T02:27:43.631Z,84.13
2022-11-29T02:29:06.442Z,69.35
2022-11-29T02:30:24.469Z,83.28
2022-11-29T02:31:38.144Z,86.93
2022-11-29T02:32:42.654Z,95.43
2022-11-29T02:34:08.748Z,79.20
2022-11-29T02:35:19.338Z,100.50
2022-11-29T02:36:30.379Z,71.43
2022-11-29T02:37:47.967Z,80.38
2022-11-29T02:39:02.239Z,81.85
2022-11-29T02:40:34.999Z,82.15
2022-11-29T02:41:42.429Z,90.80
2022-11-29T02:42:56.464Z,78.00
2022-11-29T02:44:29.431Z,66.78
2022-11-29T02:45:43.086Z,76.65
2022-11-29T02:47:10.570Z,76.30
2022-11-29T02:48:22.489Z,83.80
2022-11-29T02:49:34.321Z,84.68
2022-11-29T02:50:42.637Z,69.10
2022-11-29T02:51:50.558Z,84.20
2022-11-29T02:53:01.203Z,82.53
2022-11-29T02:54:24.068Z,81.75
2022-11-29T02:55:46.676Z,74.00
2022-11-29T02:57:04.724Z,73.85
2022-11-29T02:58:17.068Z,80.80
2022-11-29T02:59:27.467Z,74.70
2022-11-29T03:00:29.202Z,100.32
2022-11-29T03:01:41.887Z,78.20
2022-11-29T03:02:52.127Z,96.50
2022-11-29T03:04:02.750Z,82.47
2022-11-29T03:05:37.453Z,83.80
2022-11-29T03:07:06.470Z,89.13
2022-11-29T03:08:36.180Z,77.57
2022-11-29T03:09:45.166Z,72.63
2022-11-29T03:11:16.817Z,74.05
2022-11-29T03:12:33.921Z,81.57
2022-11-29T03:13:41.260Z,90.03
2022-11-29T03:15:02.758Z,97.55
2022-11-29T03:16:29.999Z,72.73
2022-11-29T03:17:38.737Z,73.45
2022-11-29T03:19:18.223Z,70.88
2022-11-29T03:20:28.814Z,68.47
2022-11-29T03:21:37.444Z,69.20
2022-11-29T03:22:46.392Z,71.18
2022-11-29T03:23:52.923Z,67.72
2022-11-29T03:25:07.348Z,57.33
2022-11-29T03:26:11.229Z,64.68
2022-11-29T03:27:14.541Z,60.58
2022-11-29T03:28:23.722Z,62.03
2022-11-29T03:29:29.633Z,54.78
2022-11-29T03:30:32.705Z,52.47
2022-11-29T03:31:43.803Z,51.05
2022-11-29T03:33:03.130Z,56.97
2022-11-29T03:34:39.221Z,57.10
2022-11-29T03:35:50.672Z,55.72
2022-11-29T03:36:58.890Z,53.88
2022-11-29T03:38:09.461Z,54.90
2022-11-29T03:39:17.642Z,66.55
2022-11-29T03:40:21.594Z,63.65
2022-11-29T03:41:37.023Z,73.18
2022-11-29T03:42:43.552Z,67.35
2022-11-29T03:43:56.047Z,63.60
2022-11-29T03:45:03.684Z,53.25
2022-11-29T03:46:09.096Z,62.75
2022-11-29T03:47:15.262Z,65.80
2022-11-29T03:48:37.842Z,65.13
2022-11-29T03:49:53.706Z,60.90
2022-11-29T03:50:58.070Z,57.92
2022-11-29T03:52:19.627Z,57.13
2022-11-29T03:53:29.340Z,55.10
2022-11-29T03:54:38.329Z,57.50
2022-11-29T03:55:52.553Z,55.78
2022-11-29T03:56:54.640Z,61.72
2022-11-29T03:58:05.745Z,60.17
2022-11-29T03:59:07.230Z,61.40
2022-11-29T04:00:13.152Z,59.40
2022-11-29T04:01:35.957Z,53.17
2022-11-29T04:02:46.793Z,55.10
2022-11-29T04:04:12.468Z,50.17
2022-11-29T04:05:20.106Z,58.10
2022-11-29T04:06:47.019Z,53.53
2022-11-29T04:07:57.471Z,48.30
2022-11-29T04:09:23.964Z,49.95
2022-11-29T04:11:07.952Z,52.35
2022-11-29T04:12:21.760Z,53.75
2022-11-29T04:13:29.314Z,48.97
2022-11-29T04:14:39.780Z,48.72
2022-11-29T04:15:41.296Z,48.03
2022-11-29T04:17:05.162Z,50.38
2022-11-29T04:18:28.974Z,48.70
2022-11-29T04:19:36.395Z,46.70
2022-11-29T04:21:07.050Z,49.70
2022-11-29T04:22:24.137Z,47.15
2022-11-29T04:23:53.009Z,45.88
2022-11-29T04:25:26.947Z,45.88
2022-11-29T04:26:50.977Z,39.70
2022-11-29T04:28:13.686Z,45.15
2022-11-29T04:29:50.680Z,38.67
2022-11-29T04:31:04.114Z,42.55
2022-11-29T04:32:31.566Z,43.90
2022-11-29T04:33:51.129Z,36.13
2022-11-29T04:35:14.062Z,45.03
2022-11-29T04:36:31.487Z,47.88
2022-11-29T04:37:41.954Z,55.47
2022-11-29T04:39:02.344Z,42.92
2022-11-29T04:40:22.896Z,49.47
2022-11-29T04:42:10.652Z,47.60
2022-11-29T04:43:33.807Z,46.03
2022-11-29T04:45:00.925Z,49.72
2022-11-29T04:46:41.495Z,44.38
2022-11-29T04:47:52.191Z,50.72
2022-11-29T04:49:27.712Z,50.27
2022-11-29T04:50:41.368Z,56.53
2022-11-29T04:52:20.639Z,50.13
2022-11-29T04:53:34.111Z,48.67
2022-11-29T04:54:43.404Z,57.20
2022-11-29T04:56:04.296Z,56.25
2022-11-29T04:57:34.392Z,53.53
2022-11-29T04:58:52.123Z,52.07
2022-11-29T05:00:10.110Z,48.53
2022-11-29T05:01:30.353Z,51.70
2022-11-29T05:03:01.463Z,46.40
2022-11-29T05:04:22.130Z,47.50
2022-11-29T05:05:24.556Z,49.92
2022-11-29T05:06:32.740Z,50.22
2022-11-29T05:07:53.058Z,56.10
2022-11-29T05:09:07.237Z,46.42
2022-11-29T05:10:52.815Z,54.55
2022-11-29T05:12:09.360Z,48.70
2022-11-29T05:13:31.483Z,61.40
2022-11-29T05:15:14.842Z,47.20
2022-11-29T05:16:37.448Z,54.65
2022-11-29T05:18:05.616Z,59.88
2022-11-29T05:19:29.844Z,49.25
2022-11-29T05:20:36.696Z,55.83
2022-11-29T05:21:47.380Z,52.30
2022-11-29T05:22:51.778Z,85.03
2022-11-29T05:24:19.423Z,54.88
2022-11-29T05:25:32.628Z,56.80
2022-11-29T05:26:41.690Z,56.10
2022-11-29T05:27:51.500Z,58.10
2022-11-29T05:28:58.859Z,56.25
2022-11-29T05:30:03.141Z,52.22
2022-11-29T05:31:26.317Z,53.50
2022-11-29T05:32:34.954Z,60.95
2022-11-29T05:34:00.975Z,97.22
2022-11-29T05:35:27.372Z,55.83
2022-11-29T05:36:31.720Z,60.03
2022-11-29T05:37:38.143Z,62.33
2022-11-29T05:38:49.178Z,62.90
2022-11-29T05:40:22.647Z,60.88
2022-11-29T05:41:46.509Z,66.07
2022-11-29T05:42:55.113Z,56.83
2022-11-29T05:44:27.875Z,58.08
2022-11-29T05:45:34.709Z,44.53
2022-11-29T05:46:50.050Z,47.22
2022-11-29T05:47:55.295Z,49.60
2022-11-29T05:49:24.041Z,48.90
2022-11-29T05:50:57.534Z,52.92
2022-11-29T05:52:17.589Z,47.40
2022-11-29T05:53:25.703Z,48.53
2022-11-29T05:54:32.670Z,51.97
2022-11-29T05:55:55.200Z,44.80
2022-11-29T05:57:18.662Z,45.63
2022-11-29T05:58:47.926Z,46.45
2022-11-29T05:59:49.737Z,48.28
2022-11-29T06:01:15.923Z,48.45
2022-11-29T06:02:26.529Z,49.50
2022-11-29T06:03:39.364Z,53.67
2022-11-29T06:04:40.920Z,46.25
2022-11-29T06:05:56.709Z,48.70
2022-11-29T06:07:07.393Z,47.80
2022-11-29T06:08:43.038Z,43.80
2022-11-29T06:09:50.270Z,42.13
2022-11-29T06:11:02.741Z,40.58
2022-11-29T06:12:14.902Z,41.53
2022-11-29T06:13:35.857Z,46.70
2022-11-29T06:15:17.273Z,39.50
2022-11-29T06:16:24.917Z,40.72
2022-11-29T06:17:53.047Z,41.03
2022-11-29T06:19:03.400Z,44.38
2022-11-29T06:20:26.827Z,44.63
2022-11-29T06:21:45.141Z,43.55
2022-11-29T06:22:52.816Z,45.25
2022-11-29T06:24:00.872Z,43.47
2022-11-29T06:25:07.836Z,48.10
2022-11-29T06:26:29.180Z,42.72
2022-11-29T06:28:02.400Z,44.13
2022-11-29T06:29:25.276Z,42.75
2022-11-29T06:30:29.593Z,45.03
2022-11-29T06:31:43.442Z,49.22
2022-11-29T06:32:56.825Z,48.53
2022-11-29T06:34:10.314Z,44.85
2022-11-29T06:35:39.398Z,47.78
2022-11-29T06:36:56.193Z,50.20
2022-11-29T06:37:57.777Z,48.40
2022-11-29T06:38:59.580Z,49.88
2022-11-29T06:40:01.385Z,49.53
2022-11-29T06:41:03.118Z,44.28
2022-11-29T06:42:04.790Z,45.45
2022-11-29T06:43:06.648Z,45.60
2022-11-29T06:44:09.415Z,52.15
2022-11-29T06:45:12.633Z,53.40
2022-11-29T06:46:26.425Z,47.93
2022-11-29T06:47:49.965Z,47.95
2022-11-29T06:49:33.522Z,46.70
2022-11-29T06:50:43.208Z,48.25
2022-11-29T06:51:50.787Z,46.78
2022-11-29T06:53:27.462Z,50.60
2022-11-29T06:54:42.279Z,46.05
2022-11-29T06:55:49.813Z,46.42
2022-11-29T06:57:17.018Z,49.00
2022-11-29T06:58:35.989Z,47.07
2022-11-29T06:59:57.154Z,45.75
2022-11-29T07:01:07.727Z,42.72
2022-11-29T07:02:36.238Z,50.83
2022-11-29T07:03:56.134Z,46.33
2022-11-29T07:05:14.783Z,48.85
2022-11-29T07:06:25.521Z,48.10
2022-11-29T07:07:27.349Z,52.00
2022-11-29T07:08:29.114Z,44.28
2022-11-29T07:09:33.755Z,41.50
2022-11-29T07:10:37.382Z,39.67
2022-11-29T07:11:39.400Z,49.45
2022-11-29T07:12:41.266Z,67.80
2022-11-29T07:13:43.070Z,47.00
2022-11-29T07:14:45.481Z,47.72
2022-11-29T07:16:08.998Z,45.47
2022-11-29T07:17:37.694Z,41.55
2022-11-29T07:18:44.668Z,42.88
2022-11-29T07:20:04.428Z,39.37
2022-11-29T07:21:20.560Z,42.90
2022-11-29T07:22:34.350Z,40.38
2022-11-29T07:23:36.593Z,61.78
2022-11-29T07:24:56.487Z,68.43
2022-11-29T07:26:00.907Z,62.42
2022-11-29T07:27:15.962Z,46.28
2022-11-29T07:28:30.987Z,47.45
2022-11-29T07:29:35.109Z,55.70
2022-11-29T07:31:10.776Z,52.17
2022-11-29T07:32:34.492Z,47.97
2022-11-29T07:33:51.256Z,55.30
2022-11-29T07:35:03.583Z,49.78
2022-11-29T07:36:16.230Z,42.97
2022-11-29T07:37:26.378Z,47.85
2022-11-29T07:39:01.830Z,48.25
2022-11-29T07:40:11.067Z,46.13
2022-11-29T07:41:20.153Z,45.60
2022-11-29T07:42:30.510Z,43.63
2022-11-29T07:43:41.270Z,37.15
2022-11-29T07:44:58.987Z,41.13
2022-11-29T07:46:00.538Z,37.38
2022-11-29T07:47:02.116Z,37.85
2022-11-29T07:48:04.098Z,38.42
2022-11-29T07:49:06.009Z,39.75
2022-11-29T07:50:08.057Z,40.65
2022-11-29T07:51:09.614Z,43.35
2022-11-29T07:52:12.442Z,39.27
2022-11-29T07:53:17.891Z,43.58
2022-11-29T07:54:19.908Z,46.47
2022-11-29T07:55:22.459Z,45.45
2022-11-29T07:56:24.011Z,44.53
2022-11-29T07:57:25.549Z,46.20
2022-11-29T07:58:27.138Z,45.72
2022-11-29T07:59:28.703Z,38.97
2022-11-29T08:00:30.319Z,47.33
2022-11-29T08:01:31.871Z,48.57
2022-11-29T08:02:33.538Z,45.65
2022-11-29T08:03:35.665Z,45.80
2022-11-29T08:04:42.292Z,46.72
2022-11-29T08:05:46.150Z,51.13
2022-11-29T08:06:47.862Z,46.50
2022-11-29T08:07:49.508Z,42.75
2022-11-29T08:08:51.098Z,45.35
2022-11-29T08:09:52.697Z,50.95
2022-11-29T08:10:54.301Z,48.33
2022-11-29T08:11:55.862Z,48.00
2022-11-29T08:12:57.509Z,47.05
2022-11-29T08:14:03.472Z,43.17
2022-11-29T08:15:05.683Z,37.50
2022-11-29T08:16:07.570Z,42.65
2022-11-29T08:17:09.237Z,41.80
2022-11-29T08:18:10.806Z,39.60
2022-11-29T08:19:12.349Z,42.75
2022-11-29T08:20:14.842Z,44.90
2022-11-29T08:21:18.191Z,47.33
2022-11-29T08:22:19.898Z,43.55
2022-11-29T08:23:21.521Z,41.92
2022-11-29T08:24:23.093Z,47.75
2022-11-29T08:25:25.473Z,46.17
2022-11-29T08:26:31.366Z,45.05
2022-11-29T08:27:34.086Z,46.27
2022-11-29T08:28:35.665Z,42.28
2022-11-29T08:29:37.297Z,42.05
2022-11-29T08:30:38.959Z,41.80
2022-11-29T08:31:40.579Z,43.30
2022-11-29T08:32:44.848Z,44.65
2022-11-29T08:33:50.125Z,45.47
2022-11-29T08:34:51.699Z,42.85
2022-11-29T08:35:53.327Z,44.35
2022-11-29T08:36:55.599Z,43.17
2022-11-29T08:37:57.192Z,46.38
2022-11-29T08:39:05.936Z,46.90
2022-11-29T08:40:10.992Z,43.25
2022-11-29T08:41:14.481Z,44.22
2022-11-29T08:42:16.063Z,41.53
2022-11-29T08:43:17.635Z,45.78
2022-11-29T08:44:19.479Z,44.05
2022-11-29T08:45:21.043Z,42.72
2022-11-29T08:46:22.786Z,41.88
2022-11-29T08:47:36.332Z,38.40
2022-11-29T08:48:37.872Z,41.30
2022-11-29T08:49:59.391Z,42.47
2022-11-29T08:51:01.017Z,42.17
2022-11-29T08:52:41.076Z,46.90
2022-11-29T08:53:42.862Z,44.08
2022-11-29T08:54:44.927Z,45.47
2022-11-29T08:55:46.989Z,44.35
2022-11-29T08:58:11.894Z,45.58
2022-11-29T08:59:13.445Z,42.30
2022-11-29T09:00:15.327Z,39.50
2022-11-29T09:01:17.983Z,46.30
2022-11-29T09:02:19.889Z,45.95
2022-11-29T09:03:40.027Z,45.58
2022-11-29T09:04:41.651Z,44.40
2022-11-29T09:05:43.677Z,44.38
2022-11-29T09:06:45.251Z,41.90
2022-11-29T09:07:47.118Z,40.45
2022-11-29T09:08:48.673Z,45.53
2022-11-29T09:09:50.224Z,42.33
2022-11-29T09:10:51.799Z,41.65
2022-11-29T09:11:53.450Z,38.42
2022-11-29T09:12:55.192Z,38.35
2022-11-29T09:13:58.481Z,37.38
2022-11-29T09:15:00.139Z,41.28
2022-11-29T09:16:07.134Z,36.65
2022-11-29T09:17:08.806Z,44.72
2022-11-29T09:18:10.415Z,39.53
2022-11-29T09:19:13.662Z,35.60
2022-11-29T09:20:15.268Z,43.80
2022-11-29T09:21:16.978Z,37.33
2022-11-29T09:22:18.542Z,39.47
2022-11-29T09:23:20.164Z,39.55
2022-11-29T09:24:21.728Z,39.63
2022-11-29T09:25:23.298Z,36.80
2022-11-29T09:26:27.304Z,39.80
2022-11-29T09:27:28.960Z,38.30
2022-11-29T09:28:30.797Z,38.63
2022-11-29T09:29:32.463Z,37.30
2022-11-29T09:30:36.589Z,39.27
2022-11-29T09:31:38.215Z,37.17
2022-11-29T09:32:39.822Z,41.20
2022-11-29T09:33:41.474Z,43.22
2022-11-29T09:34:43.327Z,37.58
2022-11-29T09:35:45.298Z,47.35
2022-11-29T09:36:47.877Z,40.80
2022-11-29T09:37:49.454Z,35.47
2022-11-29T09:38:51.012Z,39.65
2022-11-29T09:39:52.556Z,37.20
2022-11-29T09:40:55.779Z,40.03
2022-11-29T09:41:57.275Z,41.97
2022-11-29T09:43:17.729Z,37.90
2022-11-29T09:44:31.594Z,41.65
2022-11-29T09:45:37.437Z,42.00
2022-11-29T09:46:45.223Z,39.65
2022-11-29T09:48:02.358Z,39.67
2022-11-29T09:49:07.884Z,40.90
2022-11-29T09:50:36.371Z,43.40
2022-11-29T09:51:55.729Z,46.80
2022-11-29T09:53:20.938Z,47.33
2022-11-29T09:54:36.102Z,40.25
2022-11-29T09:55:56.152Z,43.85
2022-11-29T09:56:57.725Z,43.92
2022-11-29T09:57:59.691Z,39.67
2022-11-29T09:59:12.117Z,45.25
2022-11-29T10:00:18.127Z,38.45
2022-11-29T10:01:23.555Z,39.10
2022-11-29T10:02:59.078Z,40.78
2022-11-29T10:04:02.731Z,33.67
2022-11-29T10:05:10.411Z,41.57
2022-11-29T10:06:24.751Z,38.17
2022-11-29T10:07:37.538Z,39.35
2022-11-29T10:08:45.581Z,37.75
2022-11-29T10:09:52.395Z,35.10
2022-11-29T10:10:57.635Z,37.30
2022-11-29T10:12:36.156Z,35.97
2022-11-29T10:13:40.573Z,32.72
2022-11-29T10:15:09.111Z,34.38
2022-11-29T10:16:19.621Z,63.60
2022-11-29T10:17:34.534Z,36.67
2022-11-29T10:18:48.821Z,33.50
2022-11-29T10:19:51.913Z,34.10
2022-11-29T10:20:54.326Z,36.05
2022-11-29T10:22:02.341Z,39.92
2022-11-29T10:23:36.638Z,35.30
2022-11-29T10:24:38.178Z,34.15
2022-11-29T10:25:44.660Z,33.90
2022-11-29T10:26:46.534Z,34.78
2022-11-29T10:27:48.125Z,40.15
2022-11-29T10:28:49.759Z,40.33
2022-11-29T10:29:51.474Z,49.38
2022-11-29T10:30:54.166Z,44.33
2022-11-29T10:31:56.956Z,53.60
2022-11-29T10:32:59.432Z,53.15
2022-11-29T10:34:02.572Z,46.45
2022-11-29T10:35:06.065Z,42.53
2022-11-29T10:36:23.876Z,43.33
2022-11-29T10:37:25.469Z,37.67
2022-11-29T10:38:31.399Z,37.05
2022-11-29T10:39:45.488Z,37.93
2022-11-29T10:40:48.155Z,41.30
2022-11-29T10:41:51.751Z,38.40
2022-11-29T10:42:53.879Z,39.55
2022-11-29T10:43:58.043Z,53.08
2022-11-29T10:45:00.140Z,45.00
2022-11-29T10:46:02.643Z,39.75
2022-11-29T10:47:09.317Z,43.92
2022-11-29T10:48:23.098Z,39.20
2022-11-29T10:49:26.171Z,40.15
2022-11-29T10:50:29.408Z,36.27
2022-11-29T10:51:31.213Z,35.13
2022-11-29T10:52:32.904Z,36.70
2022-11-29T10:53:37.595Z,39.85
2022-11-29T10:54:41.450Z,41.15
2022-11-29T10:56:07.488Z,35.25
2022-11-29T10:57:16.558Z,38.50
2022-11-29T10:58:28.415Z,40.58
2022-11-29T10:59:30.693Z,38.30
2022-11-29T11:00:32.240Z,42.17
2022-11-29T11:01:43.018Z,38.87
2022-11-29T11:02:44.596Z,39.15
2022-11-29T11:03:55.357Z,36.80
2022-11-29T11:04:57.227Z,37.53
2022-11-29T11:06:00.788Z,37.67
2022-11-29T11:07:03.551Z,38.35
2022-11-29T11:08:05.673Z,37.10
2022-11-29T11:09:31.005Z,37.22
2022-11-29T11:10:32.622Z,39.83
2022-11-29T11:11:34.192Z,37.83
2022-11-29T11:12:37.110Z,39.90
2022-11-29T11:13:39.490Z,37.55
2022-11-29T11:14:41.219Z,43.65
2022-11-29T11:15:42.792Z,35.13
2022-11-29T11:16:44.446Z,39.38
2022-11-29T11:17:56.977Z,41.20
2022-11-29T11:18:58.647Z,91.10
2022-11-29T11:20:05.876Z,74.47
2022-11-29T11:21:11.928Z,66.50
2022-11-29T11:22:20.518Z,52.33
2022-11-29T11:23:38.654Z,45.50
2022-11-29T11:24:43.259Z,38.85
2022-11-29T11:25:45.656Z,49.47
2022-11-29T11:26:47.274Z,40.47
2022-11-29T11:27:48.820Z,39.00
2022-11-29T11:28:58.394Z,43.03
2022-11-29T11:30:00.168Z,44.92
2022-11-29T11:31:03.666Z,47.05
2022-11-29T11:32:05.512Z,43.97
2022-11-29T11:33:25.349Z,38.85
2022-11-29T11:34:36.877Z,40.60
2022-11-29T11:35:38.410Z,36.33
2022-11-29T11:36:40.022Z,40.97
2022-11-29T11:37:41.647Z,36.22
2022-11-29T11:38:53.354Z,40.28
2022-11-29T11:39:59.992Z,45.10
2022-11-29T11:41:16.686Z,37.28
2022-11-29T11:42:39.622Z,45.55
2022-11-29T11:43:41.349Z,42.55
2022-11-29T11:44:49.863Z,37.15
2022-11-29T11:45:52.366Z,36.97
2022-11-29T11:46:54.000Z,35.25
2022-11-29T11:47:58.205Z,40.53
2022-11-29T11:48:59.740Z,39.00
2022-11-29T11:50:04.033Z,37.00
2022-11-29T11:51:05.673Z,38.50
2022-11-29T11:52:07.369Z,42.03
2022-11-29T11:53:19.326Z,36.83
2022-11-29T11:54:20.931Z,39.47
2022-11-29T11:55:25.054Z,41.97
2022-11-29T11:56:27.843Z,43.23
2022-11-29T11:57:29.458Z,39.97
2022-11-29T11:58:44.033Z,43.50
2022-11-29T11:59:49.811Z,37.97
2022-11-29T12:01:13.380Z,35.08
2022-11-29T12:02:26.425Z,38.88
2022-11-29T12:03:46.600Z,38.67
2022-11-29T12:04:48.173Z,37.45
2022-11-29T12:05:49.991Z,38.10
2022-11-29T12:06:53.401Z,39.13
2022-11-29T12:08:13.632Z,39.20
2022-11-29T12:09:19.500Z,36.80
2022-11-29T12:10:24.640Z,35.35
2022-11-29T12:11:26.273Z,33.08
2022-11-29T12:12:32.870Z,34.85
2022-11-29T12:13:35.835Z,34.50
2022-11-29T12:14:59.515Z,35.40
2022-11-29T12:16:04.107Z,34.28
2022-11-29T12:17:19.652Z,32.90
2022-11-29T12:18:33.703Z,32.63
2022-11-29T12:19:40.998Z,35.70
2022-11-29T12:20:46.817Z,35.35
2022-11-29T12:21:52.601Z,34.90
2022-11-29T12:22:54.089Z,36.15
2022-11-29T12:24:28.864Z,34.85
2022-11-29T12:25:33.437Z,34.88
2022-11-29T12:28:00.740Z,36.47
2022-11-29T12:29:02.403Z,33.33
2022-11-29T12:30:11.817Z,35.28
2022-11-29T12:31:22.137Z,32.80
2022-11-29T12:32:30.110Z,40.83
2022-11-29T12:33:49.121Z,42.45
2022-11-29T12:35:18.604Z,37.85
2022-11-29T12:36:26.596Z,43.55
2022-11-29T12:37:45.598Z,37.88
2022-11-29T12:38:56.162Z,40.60
2022-11-29T12:40:27.478Z,35.92
2022-11-29T12:41:54.042Z,38.53
2022-11-29T12:43:13.003Z,40.13
2022-11-29T12:44:37.857Z,42.00
2022-11-29T12:45:49.636Z,34.28
2022-11-29T12:47:34.117Z,34.38
2022-11-29T12:48:30.681Z,32.13
2022-11-29T12:49:43.576Z,31.77
2022-11-29T12:51:20.235Z,40.58
2022-11-29T12:52:44.759Z,33.78
2022-11-29T12:53:53.935Z,30.65
2022-11-29T12:55:16.847Z,37.75
2022-11-29T12:56:33.495Z,38.08
2022-11-29T12:57:43.638Z,37.47
2022-11-29T12:59:14.168Z,74.28
2022-11-29T13:00:16.754Z,39.60
2022-11-29T13:01:30.329Z,37.70
2022-11-29T13:02:37.922Z,41.40
2022-11-29T13:03:49.597Z,53.80
2022-11-29T13:05:09.637Z,56.60
2022-11-29T13:06:39.113Z,46.83
2022-11-29T13:08:02.886Z,36.10
2022-11-29T13:09:04.525Z,39.75
2022-11-29T13:10:25.581Z,35.87
2022-11-29T13:11:32.185Z,38.47
2022-11-29T13:12:41.797Z,41.08
2022-11-29T13:13:53.274Z,38.53
2022-11-29T13:15:03.936Z,37.53
2022-11-29T13:17:54.822Z,39.97
2022-11-29T13:19:05.690Z,40.15
2022-11-29T13:20:30.836Z,41.40
2022-11-29T13:21:39.315Z,42.33
2022-11-29T13:22:50.229Z,37.67
2022-11-29T13:24:10.183Z,38.63
2022-11-29T13:25:26.007Z,43.90
2022-11-29T13:26:28.008Z,38.50
2022-11-29T13:27:38.464Z,43.15
2022-11-29T13:28:41.294Z,39.13
2022-11-29T13:29:42.866Z,37.60
2022-11-29T13:30:44.486Z,38.88
2022-11-29T13:31:46.371Z,43.33
2022-11-29T13:32:51.315Z,38.72
2022-11-29T13:34:24.153Z,40.97
2022-11-29T13:35:46.908Z,40.97
2022-11-29T13:36:59.780Z,38.88
2022-11-29T13:38:07.928Z,38.90
2022-11-29T13:39:33.558Z,43.05
2022-11-29T13:40:38.660Z,44.53
2022-11-29T13:41:48.423Z,41.78
2022-11-29T13:43:01.737Z,44.92
2022-11-29T13:44:21.639Z,44.15
2022-11-29T13:45:51.258Z,44.90
2022-11-29T13:47:06.855Z,41.77
2022-11-29T13:48:48.400Z,44.47
2022-11-29T13:49:53.041Z,43.67
2022-11-29T13:50:55.811Z,45.13
2022-11-29T13:52:04.658Z,47.95
2022-11-29T13:53:13.572Z,49.45
2022-11-29T13:54:26.989Z,48.05
2022-11-29T13:55:31.664Z,48.20
2022-11-29T13:56:46.611Z,46.95
2022-11-29T13:58:15.094Z,52.20
2022-11-29T13:59:22.996Z,62.13
2022-11-29T14:00:27.478Z,47.92
2022-11-29T14:01:29.130Z,51.42
2022-11-29T14:02:31.173Z,50.22
2022-11-29T14:03:45.481Z,49.40
2022-11-29T14:04:47.244Z,47.47
2022-11-29T14:06:21.137Z,48.28
2022-11-29T14:07:23.044Z,64.28
2022-11-29T14:09:02.037Z,59.92
2022-11-29T14:10:06.082Z,54.35
2022-11-29T14:11:13.459Z,50.43
2022-11-29T14:12:28.989Z,53.25
2022-11-29T14:13:37.713Z,58.90
2022-11-29T14:14:49.354Z,63.85
2022-11-29T14:15:55.303Z,65.07
2022-11-29T14:17:04.811Z,52.58
2022-11-29T14:18:08.914Z,53.25
2022-11-29T14:19:10.454Z,53.45
2022-11-29T14:20:25.008Z,50.75
2022-11-29T14:21:26.560Z,51.63
2022-11-29T14:22:28.138Z,50.73
2022-11-29T14:23:35.567Z,47.70
2022-11-29T14:24:37.301Z,55.83
2022-11-29T14:25:51.813Z,52.92
2022-11-29T14:26:53.912Z,57.88
2022-11-29T14:27:56.895Z,53.20
2022-11-29T14:28:58.619Z,50.55
2022-11-29T14:30:00.331Z,55.60
2022-11-29T14:31:02.692Z,50.17
2022-11-29T14:32:04.352Z,54.70
2022-11-29T14:33:18.145Z,65.93
2022-11-29T14:34:23.437Z,52.38
2022-11-29T14:36:14.055Z,49.40
2022-11-29T14:37:53.360Z,55.33
2022-11-29T14:39:15.831Z,51.00
2022-11-29T14:40:42.067Z,50.58
2022-11-29T14:41:55.763Z,54.25
2022-11-29T14:42:57.350Z,50.78
2022-11-29T14:44:17.993Z,54.58
2022-11-29T14:45:37.791Z,60.13
2022-11-29T14:46:39.503Z,52.87
2022-11-29T14:47:48.021Z,60.38
2022-11-29T14:48:55.566Z,64.45
2022-11-29T14:49:57.766Z,55.80
2022-11-29T14:51:14.959Z,56.65
2022-11-29T14:52:19.070Z,56.28
2022-11-29T14:53:33.845Z,63.28
2022-11-29T14:54:35.627Z,65.53
2022-11-29T14:55:37.646Z,64.20
2022-11-29T14:56:43.801Z,55.92
2022-11-29T14:57:48.080Z,58.53
2022-11-29T14:59:27.996Z,56.65
2022-11-29T15:00:32.721Z,57.78
2022-11-29T15:01:34.336Z,62.17
2022-11-29T15:02:39.908Z,58.85
2022-11-29T15:03:48.206Z,61.25
2022-11-29T15:04:50.968Z,61.10
2022-11-29T15:06:06.320Z,62.20
2022-11-29T15:07:13.182Z,57.47